createdAt,value
2022-11-12T00:02:38.799Z,7.90
2022-11-12T00:05:25.261Z,7.80
2022-11-12T00:08:13.303Z,7.80
2022-11-12T00:11:00.050Z,7.60
2022-11-12T00:13:46.551Z,7.80
2022-11-12T00:16:32.961Z,7.80
2022-11-12T00:19:19.515Z,8.00
2022-11-12T00:22:06.397Z,8.00
2022-11-12T00:24:54.591Z,8.10
2022-11-12T00:27:41.071Z,8.00
2022-11-12T00:33:14.581Z,7.80
2022-11-12T00:36:01.437Z,8.00
2022-11-12T00:38:48.430Z,8.10
2022-11-12T00:41:36.663Z,8.10
2022-11-12T00:44:23.680Z,8.10
2022-11-12T00:47:10.380Z,8.00
2022-11-12T00:49:56.990Z,8.00
2022-11-12T00:52:44.156Z,8.10
2022-11-12T00:55:31.128Z,8.10
2022-11-12T00:58:19.205Z,8.00
2022-11-12T01:01:07.841Z,8.00
2022-11-12T01:03:55.528Z,7.60
2022-11-12T01:06:42.881Z,7.40
2022-11-12T01:09:29.628Z,7.30
2022-11-12T01:12:16.464Z,7.30
2022-11-12T01:15:04.475Z,7.20
2022-11-12T01:20:39.330Z,7.40
2022-11-12T01:23:25.786Z,7.30
2022-11-12T01:26:14.217Z,7.20
2022-11-12T01:29:00.668Z,7.00
2022-11-12T01:31:48.538Z,7.10
2022-11-12T01:34:35.690Z,7.30
2022-11-12T01:37:22.382Z,7.30
2022-11-12T01:40:10.217Z,7.40
2022-11-12T01:42:56.995Z,7.40
2022-11-12T01:45:47.872Z,7.40
2022-11-12T01:48:39.443Z,7.40
2022-11-12T01:51:32.261Z,7.50
2022-11-12T01:54:21.105Z,7.40
2022-11-12T01:57:10.835Z,7.20
2022-11-12T02:00:02.014Z,7.30
2022-11-12T02:02:52.945Z,7.30
2022-11-12T02:05:43.327Z,7.30
2022-11-12T02:08:31.935Z,7.40
2022-11-12T02:11:22.987Z,7.30
2022-11-12T02:14:08.798Z,7.20
2022-11-12T02:16:55.595Z,7.10
2022-11-12T02:19:42.483Z,7.10
2022-11-12T02:22:30.456Z,6.80
2022-11-12T02:25:21.940Z,6.80
2022-11-12T02:28:09.931Z,6.70
2022-11-12T02:30:56.325Z,6.60
2022-11-12T02:36:30.819Z,6.90
2022-11-12T02:39:18.818Z,7.20
2022-11-12T02:42:05.626Z,7.30
2022-11-12T02:44:52.621Z,7.40
2022-11-12T02:47:39.071Z,7.30
2022-11-12T02:50:26.119Z,7.00
2022-11-12T02:53:12.881Z,6.80
2022-11-12T02:56:01.557Z,6.70
2022-11-12T02:58:48.392Z,6.80
2022-11-12T03:01:34.911Z,6.90
2022-11-12T03:04:21.432Z,7.10
2022-11-12T03:07:08.027Z,7.10
2022-11-12T03:09:54.651Z,7.10
2022-11-12T03:12:42.589Z,7.20
2022-11-12T03:15:30.275Z,7.30
2022-11-12T03:18:17.387Z,7.10
2022-11-12T03:21:04.558Z,7.10
2022-11-12T03:26:38.315Z,6.90
2022-11-12T03:29:27.279Z,6.80
2022-11-12T03:32:14.213Z,6.70
2022-11-12T03:35:00.507Z,6.60
2022-11-12T03:37:46.996Z,6.50
2022-11-12T03:40:34.344Z,6.30
2022-11-12T03:43:20.864Z,5.80
2022-11-12T03:46:08.779Z,6.40
2022-11-12T03:48:56.002Z,6.40
2022-11-12T03:51:42.518Z,6.10
2022-11-12T03:54:29.430Z,6.10
2022-11-12T03:57:16.081Z,6.10
2022-11-12T04:00:02.814Z,6.10
2022-11-12T04:02:51.059Z,6.30
2022-11-12T04:05:54.797Z,6.30
2022-11-12T04:08:42.025Z,6.40
2022-11-12T04:11:28.592Z,6.40
2022-11-12T04:14:15.355Z,6.40
2022-11-12T04:17:19.482Z,6.50
2022-11-12T04:20:27.032Z,6.50
2022-11-12T04:23:13.636Z,6.40
2022-11-12T04:26:18.150Z,6.60
2022-11-12T04:29:22.304Z,6.80
2022-11-12T04:32:09.415Z,6.90
2022-11-12T04:34:56.467Z,6.60
2022-11-12T04:37:47.558Z,6.60
2022-11-12T04:40:51.727Z,6.60
2022-11-12T04:43:55.697Z,6.60
2022-11-12T04:46:43.547Z,6.50
2022-11-12T04:49:30.336Z,6.50
2022-11-12T04:52:17.551Z,6.60
2022-11-12T04:55:06.644Z,6.60
2022-11-12T04:57:59.057Z,6.60
2022-11-12T05:00:47.884Z,6.50
2022-11-12T05:03:34.604Z,6.40
2022-11-12T05:06:38.456Z,6.30
2022-11-12T05:09:27.723Z,6.40
2022-11-12T05:12:16.038Z,6.60
2022-11-12T05:15:03.061Z,6.70
2022-11-12T05:17:50.030Z,6.80
2022-11-12T05:20:37.198Z,6.90
2022-11-12T05:23:23.819Z,6.90
2022-11-12T05:26:10.423Z,6.90
2022-11-12T05:28:58.292Z,6.80
2022-11-12T05:31:45.373Z,6.80
2022-11-12T05:34:32.213Z,6.90
2022-11-12T05:40:07.663Z,6.90
2022-11-12T05:42:54.053Z,6.70
2022-11-12T05:45:43.763Z,6.60
2022-11-12T05:48:31.043Z,6.50
2022-11-12T05:51:18.410Z,6.50
2022-11-12T05:54:05.640Z,6.50
2022-11-12T05:56:53.223Z,6.60
2022-11-12T05:59:39.806Z,6.50
2022-11-12T06:02:27.962Z,6.40
2022-11-12T06:05:14.767Z,6.50
2022-11-12T06:08:01.803Z,6.60
2022-11-12T06:10:49.887Z,6.60
2022-11-12T06:13:36.722Z,6.50
2022-11-12T06:16:23.362Z,6.50
2022-11-12T06:19:11.490Z,6.70
2022-11-12T06:21:58.333Z,6.70
2022-11-12T06:24:45.285Z,6.50
2022-11-12T06:27:31.892Z,6.30
2022-11-12T06:30:22.951Z,6.30
2022-11-12T06:33:13.413Z,6.30
2022-11-12T06:36:03.033Z,6.20
2022-11-12T06:38:50.161Z,6.30
2022-11-12T06:41:38.000Z,6.30
2022-11-12T06:44:24.709Z,6.40
2022-11-12T06:47:12.335Z,6.40
2022-11-12T06:50:00.165Z,6.40
2022-11-12T06:52:48.406Z,6.40
2022-11-12T06:55:34.954Z,6.40
2022-11-12T06:58:21.533Z,6.30
2022-11-12T07:01:12.082Z,6.20
2022-11-12T07:04:00.193Z,6.30
2022-11-12T07:06:47.281Z,6.30
2022-11-12T07:09:35.534Z,6.40
2022-11-12T07:12:22.571Z,6.40
2022-11-12T07:15:09.640Z,6.40
2022-11-12T07:17:56.176Z,6.40
2022-11-12T07:20:42.752Z,6.40
2022-11-12T07:23:31.343Z,6.40
2022-11-12T07:26:21.674Z,6.40
2022-11-12T07:29:08.632Z,6.40
2022-11-12T07:31:55.526Z,6.30
2022-11-12T07:34:42.613Z,6.30
2022-11-12T07:37:29.301Z,6.40
2022-11-12T07:40:16.460Z,6.40
2022-11-12T07:43:04.690Z,6.50
2022-11-12T07:45:51.221Z,6.60
2022-11-12T07:48:37.925Z,7.00
2022-11-12T07:51:26.391Z,7.00
2022-11-12T07:54:13.719Z,7.70
2022-11-12T07:57:00.426Z,7.80
2022-11-12T07:59:48.486Z,7.70
2022-11-12T08:02:35.047Z,7.20
2022-11-12T08:05:21.788Z,7.10
2022-11-12T08:08:08.401Z,6.90
2022-11-12T08:10:57.323Z,7.10
2022-11-12T08:13:43.980Z,7.20
2022-11-12T08:16:32.300Z,7.40
2022-11-12T08:19:19.134Z,7.30
2022-11-12T08:22:06.080Z,7.30
2022-11-12T08:24:52.903Z,7.30
2022-11-12T08:27:39.708Z,7.40
2022-11-12T08:30:27.394Z,7.40
2022-11-12T08:33:15.374Z,7.50
2022-11-12T08:36:05.213Z,7.40
2022-11-12T08:38:54.081Z,7.50
2022-11-12T08:41:41.030Z,7.70
2022-11-12T08:44:27.672Z,7.70
2022-11-12T08:50:02.479Z,7.90
2022-11-12T08:52:49.089Z,8.00
2022-11-12T08:55:36.593Z,8.00
2022-11-12T08:58:23.452Z,7.70
2022-11-12T09:01:10.986Z,7.70
2022-11-12T09:03:57.659Z,7.30
2022-11-12T09:06:51.169Z,7.30
2022-11-12T09:09:40.314Z,7.30
2022-11-12T09:12:26.880Z,7.40
2022-11-12T09:18:20.646Z,7.20
2022-11-12T09:21:09.785Z,7.30
2022-11-12T09:23:58.148Z,7.30
2022-11-12T09:26:44.857Z,7.20
2022-11-12T09:29:31.750Z,7.20
2022-11-12T09:32:18.948Z,7.20
2022-11-12T09:35:06.617Z,7.00
2022-11-12T09:37:53.751Z,6.90
2022-11-12T09:41:16.089Z,7.10
2022-11-12T09:44:05.568Z,7.10
2022-11-12T09:46:56.247Z,7.40
2022-11-12T09:49:50.605Z,7.30
2022-11-12T09:52:39.258Z,7.40
2022-11-12T09:55:31.466Z,7.30
2022-11-12T09:58:21.109Z,7.30
2022-11-12T10:01:17.102Z,7.40
2022-11-12T10:04:19.191Z,7.50
2022-11-12T10:07:13.406Z,7.50
2022-11-12T10:10:10.528Z,7.50
2022-11-12T10:13:12.510Z,7.70
2022-11-12T10:16:44.600Z,7.80
2022-11-12T10:19:45.940Z,7.80
2022-11-12T10:22:46.187Z,7.70
2022-11-12T10:25:34.586Z,7.70
2022-11-12T10:28:31.844Z,7.70
2022-11-12T10:31:23.003Z,7.70
2022-11-12T10:34:17.390Z,7.80
2022-11-12T10:37:07.146Z,8.00
2022-11-12T10:39:54.281Z,7.90
2022-11-12T10:43:22.025Z,8.00
2022-11-12T10:46:19.499Z,7.90
2022-11-12T10:52:01.197Z,8.00
2022-11-12T10:54:53.930Z,8.10
2022-11-12T10:57:41.920Z,8.00
2022-11-12T11:00:28.621Z,8.10
2022-11-12T11:03:22.024Z,8.10
2022-11-12T11:06:22.955Z,8.20
2022-11-12T11:09:17.105Z,8.00
2022-11-12T11:12:04.106Z,8.10
2022-11-12T11:15:07.871Z,8.20
2022-11-12T11:17:55.882Z,8.30
2022-11-12T11:20:48.684Z,8.20
2022-11-12T11:23:43.587Z,8.40
2022-11-12T11:26:42.216Z,8.20
2022-11-12T11:29:57.099Z,8.50
2022-11-12T11:33:16.343Z,8.70
2022-11-12T11:36:17.442Z,8.80
2022-11-12T11:39:16.474Z,8.60
2022-11-12T11:42:15.632Z,8.60
2022-11-12T11:45:12.825Z,8.50
2022-11-12T11:48:08.288Z,8.70
2022-11-12T11:53:57.364Z,8.90
2022-11-12T11:56:48.372Z,8.90
2022-11-12T11:59:45.939Z,8.90
2022-11-12T12:03:11.251Z,8.90
2022-11-12T12:06:10.635Z,8.90
2022-11-12T12:09:25.809Z,9.10
2022-11-12T12:12:26.479Z,9.20
2022-11-12T12:15:35.563Z,9.40
2022-11-12T12:18:33.305Z,9.20
2022-11-12T12:21:44.497Z,9.20
2022-11-12T12:24:35.680Z,9.30
2022-11-12T12:27:27.300Z,8.80
2022-11-12T12:30:31.086Z,8.70
2022-11-12T12:33:29.111Z,8.80
2022-11-12T12:36:18.994Z,8.80
2022-11-12T12:39:13.732Z,9.30
2022-11-12T12:42:05.722Z,9.10
2022-11-12T12:45:04.735Z,8.80
2022-11-12T12:47:55.445Z,9.20
2022-11-12T12:50:44.174Z,9.30
2022-11-12T12:53:36.335Z,9.20
2022-11-12T12:56:47.102Z,9.10
2022-11-12T12:59:34.249Z,9.00
2022-11-12T13:02:23.820Z,9.10
2022-11-12T13:05:26.968Z,9.10
2022-11-12T13:08:19.878Z,9.00
2022-11-12T13:11:07.348Z,9.20
2022-11-12T13:13:54.495Z,9.50
2022-11-12T13:17:01.905Z,9.70
2022-11-12T13:20:38.962Z,9.80
2022-11-12T13:24:05.396Z,10.00
2022-11-12T13:26:57.773Z,9.60
2022-11-12T13:29:46.170Z,9.60
2022-11-12T13:32:42.298Z,9.60
2022-11-12T13:35:35.771Z,9.70
2022-11-12T13:38:22.978Z,9.80
2022-11-12T13:41:42.338Z,9.80
2022-11-12T13:47:20.620Z,9.50
2022-11-12T13:50:11.166Z,9.50
2022-11-12T13:52:58.364Z,9.30
2022-11-12T13:55:49.992Z,9.50
2022-11-12T13:58:40.657Z,9.50
2022-11-12T14:01:35.252Z,9.70
2022-11-12T14:04:24.981Z,9.50
2022-11-12T14:07:29.095Z,9.70
2022-11-12T14:10:27.962Z,9.70
2022-11-12T14:13:44.128Z,9.50
2022-11-12T14:16:48.999Z,9.30
2022-11-12T14:20:19.676Z,9.30
2022-11-12T14:23:13.286Z,9.30
2022-11-12T14:26:00.000Z,9.30
2022-11-12T14:28:57.282Z,9.40
2022-11-12T14:31:44.408Z,9.50
2022-11-12T14:34:33.069Z,9.50
2022-11-12T14:37:41.692Z,9.50
2022-11-12T14:40:32.031Z,9.50
2022-11-12T14:43:34.431Z,9.10
2022-11-12T14:46:25.708Z,9.10
2022-11-12T14:49:20.037Z,8.90
2022-11-12T14:52:10.756Z,8.80
2022-11-12T14:55:08.194Z,8.80
2022-11-12T14:57:58.698Z,8.70
2022-11-12T15:00:47.208Z,8.70
2022-11-12T15:03:36.280Z,8.80
2022-11-12T15:06:30.724Z,8.70
2022-11-12T15:09:21.934Z,8.70
2022-11-12T15:12:14.313Z,8.60
2022-11-12T15:15:09.882Z,8.50
2022-11-12T15:18:02.126Z,8.50
2022-11-12T15:21:08.986Z,8.50
2022-11-12T15:24:02.625Z,8.50
2022-11-12T15:26:51.767Z,8.50
2022-11-12T15:29:38.767Z,8.60
2022-11-12T15:32:34.206Z,8.70
2022-11-12T15:35:35.772Z,8.70
2022-11-12T15:38:27.354Z,8.70
2022-11-12T15:41:24.731Z,8.80
2022-11-12T15:44:12.259Z,8.90
2022-11-12T15:46:59.957Z,9.00
2022-11-12T15:49:54.512Z,9.00
2022-11-12T15:52:42.350Z,9.00
2022-11-12T15:55:30.804Z,9.00
2022-11-12T15:58:21.748Z,8.80
2022-11-12T16:01:08.863Z,8.80
2022-11-12T16:03:56.533Z,8.80
2022-11-12T16:06:43.726Z,8.70
2022-11-12T16:15:14.483Z,8.30
2022-11-12T16:18:01.423Z,8.00
2022-11-12T16:20:49.839Z,7.90
2022-11-12T16:23:39.679Z,7.60
2022-11-12T16:26:31.872Z,7.60
2022-11-12T16:29:20.265Z,7.60
2022-11-12T16:32:07.352Z,7.50
2022-11-12T16:34:59.883Z,7.50
2022-11-12T16:37:48.701Z,7.50
2022-11-12T16:40:35.662Z,7.50
2022-11-12T16:43:22.390Z,7.50
2022-11-12T16:46:26.173Z,7.50
2022-11-12T16:49:14.233Z,7.60
2022-11-12T16:52:01.302Z,7.70
2022-11-12T16:54:48.691Z,7.70
2022-11-12T16:57:35.741Z,7.70
2022-11-12T17:00:22.631Z,7.70
2022-11-12T17:03:13.920Z,7.90
2022-11-12T17:06:01.148Z,7.90
2022-11-12T17:08:48.730Z,7.90
2022-11-12T17:11:36.641Z,7.80
2022-11-12T17:14:28.092Z,7.60
2022-11-12T17:17:15.551Z,7.50
2022-11-12T17:20:04.153Z,7.40
2022-11-12T17:22:50.643Z,7.40
2022-11-12T17:25:37.706Z,7.50
2022-11-12T17:28:24.969Z,7.60
2022-11-12T17:31:13.827Z,7.60
2022-11-12T17:34:01.892Z,7.50
2022-11-12T17:36:50.478Z,7.60
2022-11-12T17:39:37.947Z,7.40
2022-11-12T17:42:25.084Z,7.30
2022-11-12T17:45:12.183Z,7.40
2022-11-12T17:47:58.758Z,7.40
2022-11-12T17:50:45.778Z,7.40
2022-11-12T17:53:33.993Z,7.60
2022-11-12T17:56:22.382Z,7.60
2022-11-12T17:59:09.242Z,7.50
2022-11-12T18:01:58.212Z,7.50
2022-11-12T18:04:45.516Z,7.60
2022-11-12T18:07:46.434Z,7.70
2022-11-12T18:10:34.804Z,7.70
2022-11-12T18:13:24.713Z,7.70
2022-11-12T18:16:16.668Z,7.80
2022-11-12T18:19:03.408Z,7.70
2022-11-12T18:21:51.103Z,7.60
2022-11-12T18:24:37.878Z,7.60
2022-11-12T18:27:26.415Z,7.40
2022-11-12T18:30:18.906Z,7.50
2022-11-12T18:36:02.123Z,7.30
2022-11-12T18:38:51.017Z,7.30
2022-11-12T18:41:37.823Z,7.30
2022-11-12T18:44:26.365Z,7.20
2022-11-12T18:47:13.397Z,7.20
2022-11-12T18:50:02.954Z,7.10
2022-11-12T18:52:54.171Z,7.00
2022-11-12T18:55:41.569Z,7.00
2022-11-12T18:58:34.624Z,7.10
2022-11-12T19:01:25.364Z,7.10
2022-11-12T19:04:13.152Z,7.10
2022-11-12T19:07:00.472Z,6.90
2022-11-12T19:09:48.816Z,7.00
2022-11-12T19:12:35.671Z,6.90
2022-11-12T19:15:26.728Z,6.80
2022-11-12T19:18:15.853Z,6.80
2022-11-12T19:21:07.690Z,6.80
2022-11-12T19:23:56.494Z,6.80
2022-11-12T19:26:44.633Z,6.80
2022-11-12T19:29:32.060Z,7.00
2022-11-12T19:32:18.756Z,7.10
2022-11-12T19:35:07.896Z,7.20
2022-11-12T19:37:54.648Z,6.90
2022-11-12T19:40:42.182Z,6.80
2022-11-12T19:43:28.981Z,6.70
2022-11-12T19:46:16.242Z,6.60
2022-11-12T19:49:03.044Z,6.60
2022-11-12T19:51:51.612Z,6.60
2022-11-12T19:54:38.793Z,6.60
2022-11-12T19:57:27.717Z,6.30
2022-11-12T20:00:15.666Z,6.30
2022-11-12T20:03:02.695Z,6.30
2022-11-12T20:08:39.845Z,6.10
2022-11-12T20:19:52.393Z,6.00
2022-11-12T20:22:43.009Z,6.10
2022-11-12T20:28:27.514Z,6.00
2022-11-12T20:31:17.198Z,6.00
2022-11-12T20:34:07.869Z,6.00
2022-11-12T20:45:53.191Z,6.20
2022-11-12T20:48:43.573Z,6.20
2022-11-12T20:54:27.364Z,6.00
2022-11-12T21:08:31.494Z,5.90
2022-11-12T21:11:27.133Z,5.90
2022-11-12T21:14:15.414Z,5.90
2022-11-12T21:31:07.323Z,6.10
2022-11-12T21:33:58.394Z,6.10
2022-11-12T21:36:48.243Z,6.10
2022-11-12T21:42:23.292Z,6.00
2022-11-12T21:45:12.759Z,6.00
2022-11-12T21:48:01.029Z,5.90
2022-11-12T21:56:28.102Z,5.80
2022-11-12T21:59:15.132Z,5.90
2022-11-12T22:04:52.541Z,5.80
2022-11-12T22:07:40.406Z,6.00
2022-11-12T22:10:27.194Z,6.00
2022-11-12T22:13:31.770Z,6.00
2022-11-12T22:16:20.635Z,5.90
2022-11-12T22:25:04.609Z,5.60
2022-11-12T22:30:44.561Z,5.60
2022-11-12T22:36:24.945Z,5.80
2022-11-12T22:39:12.031Z,5.70
2022-11-12T22:42:01.216Z,5.90
2022-11-12T22:44:48.429Z,5.80
2022-11-12T22:47:34.904Z,5.80
2022-11-12T22:50:21.808Z,6.10
2022-11-12T22:53:08.660Z,6.10
2022-11-12T22:55:55.357Z,6.20
2022-11-12T22:58:45.572Z,5.90
2022-11-12T23:01:34.359Z,6.00
2022-11-12T23:04:21.131Z,6.30
2022-11-12T23:07:07.785Z,6.30
2022-11-12T23:09:54.739Z,8.60
2022-11-12T23:12:41.577Z,6.50
2022-11-12T23:15:31.434Z,6.60
2022-11-12T23:21:07.780Z,6.50
2022-11-12T23:23:56.914Z,6.50
2022-11-12T23:29:30.434Z,6.30
2022-11-12T23:32:19.098Z,6.20
2022-11-12T23:35:06.512Z,6.20
2022-11-12T23:37:54.712Z,6.20
2022-11-12T23:40:41.746Z,6.20
2022-11-12T23:43:35.517Z,6.10
2022-11-12T23:46:23.126Z,5.80
2022-11-12T23:49:14.106Z,6.20
2022-11-12T23:52:01.036Z,9.30
2022-11-12T23:54:47.469Z,6.70
2022-11-12T23:57:34.036Z,6.10
